Last 48 Hours

Stanford Met Tower

Hourly Data | America/Los_Angeles
as of 9/2/26 11:29 AM PDT
Date & Time Temp (°F) RH (%) Dew Pt (°F) Wind Dir (°) Wind Spd (mph) Wind Gust (mph) Solar Rad (W/m2) Pressure (mb) NowCast AQI Value (AQI) NowCast AQI Status Latest Rain (In) Daily Rain (In) Daily Min Temp (°F) Daily Max Temp (°F)
9/2/26 - 1100 69.8 65 58.5 SSW | 207 5.8 15.8 481 1,018.9 21 Good 0.00 0.00 54.4 72.1
9/2/26 - 1000 67.0 66 56.2 SE | 136 2.5 12.5 337 1,019.1 21 Good 0.00 0.00 54.4 69.2
9/2/26 - 0900 60.6 76 53.9 ESE | 111 1.0 5.1 176 1,019.5 21 Good 0.00 0.00 54.4 64.5
9/2/26 - 0800 57.4 83 53.4 ESE | 116 2.4 6.6 17 1,019.4 21 Good 0.00 0.00 54.4 58.2
9/2/26 - 0700 57.1 83 53.2 ESE | 121 0.3 5.2 2 1,019.2 21 Good 0.00 0.00 54.4 57.8
9/2/26 - 0600 56.1 86 52.9 ESE | 119 1.2 5.3 0 1,019.0 21 Good 0.00 0.00 54.4 57.5
9/2/26 - 0500 56.0 85 52.6 SE | 129 2.1 7.1 0 1,018.9 21 Good 0.00 0.00 54.4 57.5
9/2/26 - 0400 55.8 87 53.1 SSE | 166 1.4 6.8 0 1,019.2 21 Good 0.00 0.00 54.4 57.5
9/2/26 - 0300 55.3 88 52.9 SSE | 159 1.6 6.9 0 1,019.1 21 Good 0.00 0.00 54.4 57.5
9/2/26 - 0200 56.3 83 52.2 SSW | 206 2.5 6.1 0 1,019.1 21 Good 0.00 0.00 55.0 57.5
9/2/26 - 0100 59.5 76 53.0 SE | 146 4.4 9.1 0 1,019.2 21 Good 0.00 0.00 53.0 72.7
9/2/26 - 0000 58.0 82 53.4 SSE | 160 2.5 9.1 0 1,019.2 21 Good 0.00 0.00 53.0 72.7
9/1/26 - 2300 60.8 76 54.2 SW | 221 2.7 12.1 0 1,018.9 21 Good 0.00 0.00 53.0 72.7
9/1/26 - 2200 61.5 76 54.7 SW | 220 3.0 11.3 0 1,019.4 21 Good 0.00 0.00 53.0 72.7
9/1/26 - 2100 62.8 72 54.8 SW | 231 6.1 14.1 0 1,019.1 21 Good 0.00 0.00 53.0 72.7
9/1/26 - 2000 63.8 66 53.3 WSW | 244 7.1 16.0 9 1,018.6 21 Good 0.00 0.00 53.0 72.7
9/1/26 - 1900 66.8 57 52.0 WSW | 240 7.7 17.9 166 1,018.1 21 Good 0.00 0.00 53.0 72.7
9/1/26 - 1800 68.2 55 52.1 WSW | 241 10.0 17.7 365 1,017.6 21 Good 0.00 0.00 53.0 72.7
9/1/26 - 1700 68.7 53 51.6 W | 270 10.8 20.2 550 1,017.4 21 Good 0.00 0.00 53.0 72.7
9/1/26 - 1600 70.5 49 51.1 WSW | 258 10.3 21.8 708 1,017.2 21 Good 0.00 0.00 53.0 72.7
9/1/26 - 1500 70.7 50 52.3 NW | 309 5.4 18.6 824 1,016.7 21 Good 0.00 0.00 53.0 72.7
9/1/26 - 1400 70.9 47 50.6 SSW | 212 4.3 13.4 827 1,016.9 21 Good 0.00 0.00 53.0 72.7
9/1/26 - 1300 68.2 51 50.4 WSW | 245 3.6 11.8 603 1,017.9 21 Good 0.00 0.00 53.0 70.3
9/1/26 - 1200 65.9 57 51.4 N | 11 2.3 7.9 424 1,018.5 21 Good 0.00 0.00 53.0 67.3
9/1/26 - 1100 64.2 61 51.4 WNW | 287 1.7 5.9 224 1,018.9 21 Good 0.00 0.00 53.0 65.1
9/1/26 - 1000 63.4 61 50.5 WSW | 237 1.2 6.0 192 1,018.5 21 Good 0.00 0.00 53.0 64.4
9/1/26 - 0900 62.2 64 50.7 SW | 225 2.0 7.0 122 1,018.6 21 Good 0.00 0.00 53.0 63.4
9/1/26 - 0800 60.8 68 51.1 SSW | 211 2.8 6.5 46 1,018.2 21 Good 0.00 0.00 53.0 62.0
9/1/26 - 0700 60.4 68 50.8 SW | 220 3.3 8.8 2 1,017.4 21 Good 0.00 0.00 53.0 61.1
9/1/26 - 0600 60.2 69 51.1 SSW | 204 4.6 9.7 0 1,017.0 21 Good 0.00 0.00 53.0 60.8
9/1/26 - 0500 60.0 70 51.2 SSW | 193 2.7 7.4 0 1,016.9 21 Good 0.00 0.00 53.0 60.6
9/1/26 - 0400 59.3 74 52.1 SW | 227 2.3 6.9 0 1,017.1 21 Good 0.00 0.00 53.0 60.5
9/1/26 - 0300 57.2 83 53.2 W | 263 1.4 5.8 0 1,016.9 21 Good 0.00 0.00 53.0 58.8
9/1/26 - 0200 54.4 90 52.6 SSW | 208 0.6 4.0 0 1,017.1 21 Good 0.00 0.00 53.0 56.1
9/1/26 - 0100 52.6 92 51.4 SSW | 193 3.3 6.0 0 1,017.1 21 Good 0.00 0.00 51.4 69.2
9/1/26 - 0000 52.9 92 51.6 SSW | 196 1.1 5.5 0 1,017.2 21 Good 0.00 0.00 51.4 69.2
8/31/26 - 2300 54.0 90 52.0 SSW | 202 1.2 4.4 0 1,017.3 21 Good 0.00 0.00 51.4 69.2
8/31/26 - 2200 57.2 81 52.3 WSW | 251 1.0 6.5 0 1,017.0 21 Good 0.00 0.00 51.4 69.2
8/31/26 - 2100 59.4 74 52.1 WSW | 248 2.3 9.4 0 1,016.5 21 Good 0.00 0.00 51.4 69.2
8/31/26 - 2000 61.8 70 52.7 WSW | 242 6.5 11.4 28 1,015.7 21 Good 0.00 0.00 51.4 69.2
8/31/26 - 1900 64.6 65 53.4 WSW | 246 7.5 15.3 148 1,015.3 21 Good 0.00 0.00 51.4 69.2
8/31/26 - 1800 66.8 61 53.7 WNW | 284 7.7 17.6 365 1,015.0 21 Good 0.00 0.00 51.4 69.2
8/31/26 - 1700 66.8 62 54.2 NNW | 327 9.2 20.3 532 1,014.7 21 Good 0.00 0.00 51.4 69.2
8/31/26 - 1600 67.7 62 55.0 NW | 311 7.8 16.0 718 1,014.6 21 Good 0.00 0.00 51.4 69.2
8/31/26 - 1500 67.4 63 55.4 W | 279 7.5 18.9 826 1,014.9 21 Good 0.00 0.00 51.4 69.2
8/31/26 - 1400 67.1 65 56.0 WSW | 240 7.6 14.7 860 1,015.6 21 Good 0.00 0.00 51.4 69.2
8/31/26 - 1300 64.5 70 55.5 WNW | 298 4.5 13.6 405 1,016.4 21 Good 0.00 0.00 51.4 66.2
8/31/26 - 1200 63.4 71 54.8 NW | 326 2.1 9.1 358 1,016.8 21 Good 0.00 0.00 51.4 64.5
8/31/26 - 1100 61.6 73 53.8 WNW | 288 1.3 6.2 258 1,017.2 21 Good 0.00 0.00 51.4 63.1
Max 70.9 92 58.5 - 10.8 21.8 860 1,019.5 21 - 0.00 0.00 55.0 72.7
Avg 62.0 71 52.9 - 4.0 10.6 216 1,017.6 21 - 0.00 - - -
Min 52.6 47 50.4 - 0.3 4.0 0 1,014.6 21 - 0.00 0.00 51.4 56.1
Total - - - - - - - - - - 0.00 - - -